createdAt,value
2023-01-24T00:02:01.607Z,73.65
2023-01-24T00:04:32.806Z,73.59
2023-01-24T00:07:03.548Z,73.64
2023-01-24T00:09:34.328Z,73.50
2023-01-24T00:12:05.083Z,73.47
2023-01-24T00:14:36.065Z,73.37
2023-01-24T00:17:08.961Z,73.36
2023-01-24T00:19:39.679Z,73.14
2023-01-24T00:22:10.326Z,73.31
2023-01-24T00:24:41.138Z,73.56
2023-01-24T00:27:11.923Z,73.37
2023-01-24T00:29:42.725Z,73.45
2023-01-24T00:32:13.705Z,73.66
2023-01-24T00:34:44.401Z,73.69
2023-01-24T00:37:15.087Z,73.70
2023-01-24T00:39:45.858Z,73.44
2023-01-24T00:42:16.959Z,73.47
2023-01-24T00:44:47.701Z,73.79
2023-01-24T00:47:18.602Z,73.44
2023-01-24T00:49:49.311Z,73.40
2023-01-24T00:52:20.283Z,73.57
2023-01-24T00:54:52.455Z,73.68
2023-01-24T00:57:25.428Z,73.98
2023-01-24T00:59:56.181Z,73.68
2023-01-24T01:02:27.543Z,73.68
2023-01-24T01:04:58.282Z,73.38
2023-01-24T01:07:29.062Z,73.79
2023-01-24T01:09:59.836Z,73.80
2023-01-24T01:12:30.777Z,73.54
2023-01-24T01:15:01.542Z,73.62
2023-01-24T01:17:32.461Z,73.53
2023-01-24T01:20:03.439Z,73.63
2023-01-24T01:22:34.323Z,73.83
2023-01-24T01:25:06.846Z,73.46
2023-01-24T01:27:37.557Z,73.48
2023-01-24T01:30:10.512Z,73.59
2023-01-24T01:32:41.652Z,73.58
2023-01-24T01:35:13.066Z,73.83
2023-01-24T01:37:44.108Z,73.90
2023-01-24T01:40:15.664Z,73.71
2023-01-24T01:42:53.516Z,73.63
2023-01-24T01:45:48.006Z,73.75
2023-01-24T01:48:25.260Z,73.45
2023-01-24T01:51:03.843Z,73.59
2023-01-24T01:53:42.673Z,73.87
2023-01-24T01:56:22.748Z,73.42
2023-01-24T01:58:55.525Z,73.34
2023-01-24T02:01:26.709Z,73.50
2023-01-24T02:04:09.395Z,73.65
2023-01-24T02:09:42.475Z,74.07
2023-01-24T02:12:17.810Z,73.63
2023-01-24T02:15:07.875Z,73.55
2023-01-24T02:17:38.927Z,73.57
2023-01-24T02:20:28.401Z,73.46
2023-01-24T02:23:13.013Z,73.93
2023-01-24T02:25:53.428Z,73.61
2023-01-24T02:28:24.571Z,73.62
2023-01-24T02:31:00.431Z,73.28
2023-01-24T02:33:32.110Z,73.53
2023-01-24T02:36:21.328Z,73.75
2023-01-24T02:38:59.996Z,73.63
2023-01-24T02:41:37.805Z,73.78
2023-01-24T02:44:14.695Z,73.59
2023-01-24T02:46:48.085Z,73.56
2023-01-24T02:49:20.321Z,73.45
2023-01-24T02:52:11.263Z,73.51
2023-01-24T02:54:45.199Z,73.91
2023-01-24T02:57:34.566Z,73.88
2023-01-24T03:00:09.050Z,73.73
2023-01-24T03:02:41.705Z,73.61
2023-01-24T03:05:15.905Z,73.56
2023-01-24T03:07:47.195Z,73.58
2023-01-24T03:10:23.195Z,73.81
2023-01-24T03:13:14.229Z,73.76
2023-01-24T03:16:03.478Z,73.78
2023-01-24T03:18:52.844Z,73.86
2023-01-24T03:21:43.313Z,73.99
2023-01-24T03:24:34.699Z,73.90
2023-01-24T03:27:23.983Z,73.92
2023-01-24T03:30:12.925Z,73.90
2023-01-24T03:33:02.840Z,73.94
2023-01-24T03:35:35.129Z,73.94
2023-01-24T03:38:25.718Z,73.61
2023-01-24T03:40:59.141Z,73.96
2023-01-24T03:43:31.363Z,73.93
2023-01-24T03:46:02.691Z,74.09
2023-01-24T03:48:48.511Z,73.76
2023-01-24T03:51:37.574Z,73.91
2023-01-24T03:54:09.030Z,74.10
2023-01-24T03:56:46.616Z,73.54
2023-01-24T03:59:17.848Z,73.64
2023-01-24T04:01:52.100Z,73.63
2023-01-24T04:04:49.304Z,73.89
2023-01-24T04:07:27.004Z,74.15
2023-01-24T04:10:08.963Z,74.23
2023-01-24T04:12:44.938Z,73.89
2023-01-24T04:15:28.143Z,74.29
2023-01-24T04:18:10.306Z,74.04
2023-01-24T04:20:41.715Z,74.22
2023-01-24T04:23:14.190Z,74.11
2023-01-24T04:25:55.626Z,74.23
2023-01-24T04:28:27.442Z,74.03
2023-01-24T04:31:03.271Z,74.21
2023-01-24T04:33:50.824Z,74.41
2023-01-24T04:36:22.181Z,74.63
2023-01-24T04:38:53.112Z,74.05
2023-01-24T04:41:29.281Z,74.48
2023-01-24T04:44:00.684Z,74.12
2023-01-24T04:46:33.040Z,74.47
2023-01-24T04:49:05.086Z,74.12
2023-01-24T04:51:43.926Z,74.04
2023-01-24T04:54:20.747Z,73.91
2023-01-24T04:56:52.647Z,74.14
2023-01-24T04:59:23.613Z,73.97
2023-01-24T05:01:54.870Z,73.97
2023-01-24T05:04:40.888Z,73.71
2023-01-24T05:07:12.067Z,73.98
2023-01-24T05:09:43.076Z,73.90
2023-01-24T05:12:15.778Z,74.29
2023-01-24T05:14:47.137Z,74.47
2023-01-24T05:17:18.834Z,74.40
2023-01-24T05:19:52.979Z,74.46
2023-01-24T05:22:32.356Z,74.56
2023-01-24T05:25:03.423Z,74.48
2023-01-24T05:27:34.488Z,74.08
2023-01-24T05:30:26.704Z,74.30
2023-01-24T05:33:00.881Z,74.43
2023-01-24T05:35:32.098Z,74.33
2023-01-24T05:38:18.076Z,74.20
2023-01-24T05:41:02.925Z,74.13
2023-01-24T05:43:41.875Z,73.97
2023-01-24T05:46:17.625Z,73.93
2023-01-24T05:48:58.529Z,74.04
2023-01-24T05:52:07.442Z,74.05
2023-01-24T05:54:50.925Z,74.31
2023-01-24T05:57:31.323Z,74.34
2023-01-24T06:00:24.834Z,74.26
2023-01-24T06:03:19.176Z,74.31
2023-01-24T06:05:56.451Z,74.37
2023-01-24T06:08:28.397Z,73.83
2023-01-24T06:11:03.239Z,74.18
2023-01-24T06:13:34.989Z,74.12
2023-01-24T06:16:13.008Z,74.20
2023-01-24T06:18:46.670Z,74.24
2023-01-24T06:21:36.988Z,74.27
2023-01-24T06:24:11.121Z,74.42
2023-01-24T06:26:59.674Z,74.04
2023-01-24T06:29:40.641Z,73.84
2023-01-24T06:32:31.072Z,73.95
2023-01-24T06:35:20.806Z,73.35
2023-01-24T06:37:54.783Z,74.02
2023-01-24T06:40:31.690Z,74.39
2023-01-24T06:43:03.756Z,74.37
2023-01-24T06:45:36.043Z,74.45
2023-01-24T06:48:09.296Z,74.73
2023-01-24T06:50:40.912Z,74.00
2023-01-24T06:53:16.827Z,74.05
2023-01-24T06:55:49.821Z,73.91
2023-01-24T06:58:24.415Z,74.42
2023-01-24T07:00:56.794Z,74.36
2023-01-24T07:03:32.658Z,74.29
2023-01-24T07:06:04.177Z,74.36
2023-01-24T07:08:35.655Z,74.48
2023-01-24T07:11:07.047Z,74.53
2023-01-24T07:13:40.656Z,74.19
2023-01-24T07:16:12.170Z,74.51
2023-01-24T07:18:46.174Z,74.63
2023-01-24T07:21:18.981Z,74.49
2023-01-24T07:23:58.190Z,74.80
2023-01-24T07:26:30.688Z,74.09
2023-01-24T07:29:01.634Z,74.47
2023-01-24T07:31:35.660Z,74.39
2023-01-24T07:34:06.778Z,74.49
2023-01-24T07:36:40.241Z,73.94
2023-01-24T07:39:11.265Z,74.57
2023-01-24T07:41:43.687Z,74.42
2023-01-24T07:44:16.520Z,74.32
2023-01-24T07:46:47.636Z,74.33
2023-01-24T07:49:20.209Z,74.37
2023-01-24T07:52:07.170Z,74.22
2023-01-24T07:54:46.268Z,74.09
2023-01-24T07:57:18.224Z,73.91
2023-01-24T07:59:53.129Z,73.64
2023-01-24T08:02:27.386Z,73.69
2023-01-24T08:05:12.460Z,73.77
2023-01-24T08:07:55.890Z,73.87
2023-01-24T08:10:28.175Z,73.57
2023-01-24T08:12:59.805Z,73.82
2023-01-24T08:15:33.542Z,73.59
2023-01-24T08:18:06.720Z,73.65
2023-01-24T08:20:38.016Z,73.46
2023-01-24T08:23:09.088Z,73.51
2023-01-24T08:25:41.001Z,73.12
2023-01-24T08:28:12.236Z,73.41
2023-01-24T08:30:45.401Z,73.61
2023-01-24T08:33:19.964Z,73.56
2023-01-24T08:35:53.024Z,73.55
2023-01-24T08:38:26.458Z,73.71
2023-01-24T08:40:57.675Z,73.41
2023-01-24T08:43:29.075Z,73.42
2023-01-24T08:46:00.224Z,73.33
2023-01-24T08:48:34.039Z,73.23
2023-01-24T08:51:08.863Z,73.18
2023-01-24T08:53:39.969Z,73.27
2023-01-24T08:56:12.772Z,73.57
2023-01-24T08:58:45.042Z,73.05
2023-01-24T09:01:18.448Z,73.36
2023-01-24T09:03:50.053Z,73.56
2023-01-24T09:06:21.966Z,73.58
2023-01-24T09:08:55.797Z,73.37
2023-01-24T09:11:26.942Z,73.23
2023-01-24T09:13:59.375Z,72.84
2023-01-24T09:16:31.762Z,72.85
2023-01-24T09:19:14.645Z,72.67
2023-01-24T09:21:52.597Z,72.82
2023-01-24T09:24:24.586Z,72.92
2023-01-24T09:26:55.672Z,73.01
2023-01-24T09:29:29.049Z,73.16
2023-01-24T09:32:00.614Z,73.24
2023-01-24T09:34:31.629Z,73.07
2023-01-24T09:37:02.861Z,72.94
2023-01-24T09:39:39.145Z,73.09
2023-01-24T09:42:25.869Z,72.87
2023-01-24T09:45:17.363Z,72.84
2023-01-24T09:47:55.187Z,72.76
2023-01-24T09:50:34.806Z,72.89
2023-01-24T09:53:06.322Z,72.42
2023-01-24T09:55:42.749Z,72.39
2023-01-24T09:58:31.803Z,72.60
2023-01-24T10:01:07.955Z,72.74
2023-01-24T10:03:41.185Z,72.77
2023-01-24T10:06:30.431Z,72.75
2023-01-24T10:09:56.055Z,72.45
2023-01-24T10:13:08.395Z,72.52
2023-01-24T10:16:13.413Z,72.36
2023-01-24T10:19:08.437Z,72.65
2023-01-24T10:26:08.487Z,72.61
2023-01-24T10:30:23.088Z,72.36
2023-01-24T10:33:42.982Z,72.30
2023-01-24T10:40:15.287Z,71.98
2023-01-24T10:42:46.601Z,72.00
2023-01-24T10:49:20.340Z,72.17
2023-01-24T10:52:40.044Z,72.13
2023-01-24T10:55:45.705Z,72.06
2023-01-24T10:58:38.420Z,71.78
2023-01-24T11:04:34.662Z,71.70
2023-01-24T11:07:21.674Z,71.82
2023-01-24T11:10:47.500Z,72.01
2023-01-24T11:14:09.750Z,72.01
2023-01-24T11:16:52.657Z,71.69
2023-01-24T11:20:18.979Z,71.90
2023-01-24T11:22:51.719Z,71.81
2023-01-24T11:25:34.925Z,71.80
2023-01-24T11:28:29.124Z,71.66
2023-01-24T11:31:20.143Z,71.53
2023-01-24T11:34:41.796Z,71.74
2023-01-24T11:38:09.843Z,71.95
2023-01-24T11:40:43.813Z,71.71
2023-01-24T11:43:37.513Z,71.72
2023-01-24T11:46:41.450Z,71.73
2023-01-24T11:50:03.630Z,71.52
2023-01-24T11:54:01.901Z,71.83
2023-01-24T11:57:09.623Z,71.92
2023-01-24T12:00:33.054Z,71.70
2023-01-24T12:03:59.303Z,71.76
2023-01-24T12:07:10.177Z,71.96
2023-01-24T12:09:56.696Z,71.94
2023-01-24T12:12:44.375Z,71.98
2023-01-24T12:15:54.883Z,72.08
2023-01-24T12:18:57.641Z,71.68
2023-01-24T12:21:29.563Z,71.74
2023-01-24T12:24:07.417Z,71.53
2023-01-24T12:26:45.195Z,71.67
2023-01-24T12:29:23.579Z,71.24
2023-01-24T12:32:00.744Z,71.28
2023-01-24T12:34:45.134Z,71.29
2023-01-24T12:37:26.189Z,71.52
2023-01-24T12:40:04.922Z,71.67
2023-01-24T12:42:51.057Z,71.54
2023-01-24T12:45:27.684Z,71.82
2023-01-24T12:48:06.711Z,71.77
2023-01-24T12:50:45.923Z,71.82
2023-01-24T12:53:25.053Z,71.77
2023-01-24T12:56:06.293Z,71.45
2023-01-24T12:58:41.840Z,71.54
2023-01-24T13:01:32.968Z,71.49
2023-01-24T13:04:18.526Z,71.37
2023-01-24T13:06:59.783Z,71.60
2023-01-24T13:09:37.819Z,71.70
2023-01-24T13:12:17.759Z,71.57
2023-01-24T13:14:55.165Z,71.36
2023-01-24T13:18:01.874Z,71.50
2023-01-24T13:20:56.305Z,71.52
2023-01-24T13:23:49.142Z,71.30
2023-01-24T13:26:35.413Z,71.52
2023-01-24T13:29:21.398Z,71.24
2023-01-24T13:32:01.459Z,71.17
2023-01-24T13:34:36.204Z,71.29
2023-01-24T13:37:09.156Z,71.18
2023-01-24T13:39:44.340Z,71.30
2023-01-24T13:42:33.510Z,71.20
2023-01-24T13:45:42.500Z,71.33
2023-01-24T13:48:44.860Z,71.20
2023-01-24T13:51:48.897Z,71.24
2023-01-24T13:54:41.044Z,71.32
2023-01-24T13:57:29.904Z,71.52
2023-01-24T14:00:20.222Z,71.23
2023-01-24T14:03:17.041Z,71.48
2023-01-24T14:05:52.267Z,71.36
2023-01-24T14:08:42.223Z,71.82
2023-01-24T14:11:24.504Z,71.70
2023-01-24T14:14:02.450Z,71.53
2023-01-24T14:17:06.773Z,71.58
2023-01-24T14:19:41.939Z,71.24
2023-01-24T14:22:31.094Z,71.33
2023-01-24T14:25:30.965Z,71.15
2023-01-24T14:28:04.440Z,71.18
2023-01-24T14:30:49.568Z,71.18
2023-01-24T14:33:32.264Z,71.31
2023-01-24T14:36:07.673Z,71.47
2023-01-24T14:38:38.920Z,71.42
2023-01-24T14:41:22.727Z,71.38
2023-01-24T14:43:54.859Z,71.16
2023-01-24T14:46:27.558Z,71.22
2023-01-24T14:48:58.818Z,71.56
2023-01-24T14:51:30.123Z,71.39
2023-01-24T14:54:08.311Z,71.29
2023-01-24T14:56:43.960Z,71.40
2023-01-24T14:59:19.208Z,71.42
2023-01-24T15:02:02.342Z,71.20
2023-01-24T15:04:33.543Z,71.49
2023-01-24T15:07:12.997Z,71.47
2023-01-24T15:09:45.136Z,71.52
2023-01-24T15:12:24.707Z,71.36
2023-01-24T15:14:57.285Z,71.52
2023-01-24T15:17:31.806Z,71.41
2023-01-24T15:20:09.816Z,71.61
2023-01-24T15:22:42.556Z,71.50
2023-01-24T15:25:24.888Z,71.73
2023-01-24T15:27:58.819Z,71.42
2023-01-24T15:30:30.851Z,71.33
2023-01-24T15:33:12.734Z,71.41
2023-01-24T15:35:50.229Z,71.69
2023-01-24T15:38:30.222Z,71.74
2023-01-24T15:41:19.301Z,71.50
2023-01-24T15:44:01.208Z,71.51
2023-01-24T15:46:55.153Z,71.66
2023-01-24T15:49:38.843Z,71.63
2023-01-24T15:52:21.048Z,71.21
2023-01-24T15:54:59.465Z,71.41
2023-01-24T15:57:33.944Z,71.41
2023-01-24T16:00:26.045Z,71.20
2023-01-24T16:02:58.443Z,71.17
2023-01-24T16:05:30.659Z,71.24
2023-01-24T16:08:01.803Z,71.55
2023-01-24T16:10:33.939Z,71.34
2023-01-24T16:13:05.542Z,71.63
2023-01-24T16:16:04.586Z,71.54
2023-01-24T16:18:42.335Z,71.15
2023-01-24T16:22:27.530Z,71.60
2023-01-24T16:29:22.296Z,71.76
2023-01-24T16:31:53.718Z,71.80
2023-01-24T16:34:25.701Z,71.90
2023-01-24T16:36:56.685Z,71.75
2023-01-24T16:39:29.182Z,71.84
2023-01-24T16:42:05.636Z,71.97
2023-01-24T16:44:51.724Z,71.88
2023-01-24T16:47:34.701Z,72.24
2023-01-24T16:50:18.908Z,72.21
2023-01-24T16:52:53.909Z,72.14
2023-01-24T16:55:25.348Z,72.28
2023-01-24T16:58:00.993Z,72.04
2023-01-24T17:00:34.011Z,72.07
2023-01-24T17:03:06.026Z,72.37
2023-01-24T17:05:40.418Z,72.20
2023-01-24T17:08:15.344Z,72.07
2023-01-24T17:10:48.036Z,72.34
2023-01-24T17:13:21.158Z,72.02
2023-01-24T17:15:53.459Z,72.08
2023-01-24T17:18:25.829Z,71.85
2023-01-24T17:20:56.968Z,71.89
2023-01-24T17:23:28.621Z,71.99
2023-01-24T17:26:06.220Z,72.11
2023-01-24T17:28:48.479Z,72.14
2023-01-24T17:31:23.058Z,71.99
2023-01-24T17:33:56.399Z,72.05
2023-01-24T17:37:15.042Z,72.11
2023-01-24T17:39:46.027Z,72.07
2023-01-24T17:42:17.497Z,72.13
2023-01-24T17:44:54.583Z,72.19
2023-01-24T17:47:32.674Z,72.53
2023-01-24T17:50:10.130Z,72.20
2023-01-24T17:52:41.305Z,72.09
2023-01-24T17:55:14.778Z,72.21
2023-01-24T17:57:50.881Z,72.30
2023-01-24T18:00:26.408Z,72.30
2023-01-24T18:02:57.790Z,72.24
2023-01-24T18:16:43.347Z,71.51
2023-01-24T18:19:16.755Z,71.55
2023-01-24T18:21:48.648Z,71.27
2023-01-24T18:24:27.004Z,71.45
2023-01-24T18:26:58.742Z,71.52
2023-01-24T18:29:30.292Z,71.35
2023-01-24T18:32:01.645Z,71.40
2023-01-24T18:34:33.279Z,71.53
2023-01-24T18:37:04.450Z,71.28
2023-01-24T18:39:35.644Z,71.49
2023-01-24T18:42:08.344Z,71.43
2023-01-24T18:44:39.400Z,71.50
2023-01-24T18:47:10.649Z,71.57
2023-01-24T18:49:41.705Z,71.51
2023-01-24T18:52:13.299Z,71.65
2023-01-24T18:54:44.546Z,71.76
2023-01-24T18:57:15.700Z,71.60
2023-01-24T18:59:46.948Z,72.00
2023-01-24T19:02:18.170Z,71.85
2023-01-24T19:04:49.510Z,71.77
2023-01-24T19:07:20.606Z,72.03
2023-01-24T19:09:51.797Z,71.78
2023-01-24T19:12:22.959Z,71.97
2023-01-24T19:14:54.714Z,72.00
2023-01-24T19:17:26.331Z,72.06
2023-01-24T19:19:57.627Z,72.16
2023-01-24T19:22:28.799Z,72.15
2023-01-24T19:25:00.275Z,72.03
2023-01-24T19:27:31.412Z,72.47
2023-01-24T19:30:02.554Z,72.33
2023-01-24T19:32:33.661Z,72.04
2023-01-24T19:35:05.294Z,72.12
2023-01-24T19:37:36.537Z,72.40
2023-01-24T19:40:10.023Z,72.33
2023-01-24T19:42:42.621Z,72.50
2023-01-24T19:45:15.119Z,72.21
2023-01-24T19:47:47.663Z,72.22
2023-01-24T19:50:19.607Z,72.38
2023-01-24T19:52:52.140Z,72.09
2023-01-24T19:55:23.227Z,72.17
2023-01-24T19:57:54.410Z,72.10
2023-01-24T20:00:25.675Z,72.30
2023-01-24T20:02:56.912Z,72.33
2023-01-24T20:05:29.138Z,72.21
2023-01-24T20:08:00.944Z,71.88
2023-01-24T20:10:32.200Z,72.24
2023-01-24T20:13:04.095Z,72.20
2023-01-24T20:15:35.594Z,72.47
2023-01-24T20:18:10.380Z,72.24
2023-01-24T20:20:49.336Z,72.26
2023-01-24T20:23:20.835Z,72.12
2023-01-24T20:25:53.339Z,72.35
2023-01-24T20:28:26.467Z,72.11
2023-01-24T20:31:00.153Z,72.20
2023-01-24T20:33:32.282Z,72.32
2023-01-24T20:36:06.905Z,72.33
2023-01-24T20:38:39.562Z,72.09
2023-01-24T20:41:13.334Z,72.31
2023-01-24T20:43:46.023Z,71.80
2023-01-24T20:46:20.800Z,71.88
2023-01-24T20:48:53.640Z,71.62
2023-01-24T20:51:29.304Z,71.78
2023-01-24T20:54:01.938Z,71.93
2023-01-24T20:56:34.043Z,71.49
2023-01-24T20:59:05.363Z,71.65
2023-01-24T21:01:36.490Z,71.39
2023-01-24T21:04:08.667Z,71.90
2023-01-24T21:06:41.789Z,71.69
2023-01-24T21:09:14.542Z,71.79
2023-01-24T21:11:47.827Z,71.71
2023-01-24T21:14:20.875Z,71.63
2023-01-24T21:16:53.066Z,71.50
2023-01-24T21:19:25.890Z,71.69
2023-01-24T21:21:57.303Z,71.27
2023-01-24T21:24:33.715Z,71.75
2023-01-24T21:27:05.683Z,71.69
2023-01-24T21:29:36.954Z,71.58
2023-01-24T21:32:08.513Z,71.50
2023-01-24T21:34:39.753Z,71.52
2023-01-24T21:37:22.747Z,71.46
2023-01-24T21:40:02.399Z,71.86
2023-01-24T21:42:33.444Z,71.64
2023-01-24T21:45:05.250Z,71.62
2023-01-24T21:47:36.809Z,71.45
2023-01-24T21:50:08.762Z,71.55
2023-01-24T21:52:39.895Z,71.24
2023-01-24T21:55:11.510Z,71.43
2023-01-24T21:58:00.482Z,71.52
2023-01-24T22:00:34.527Z,71.24
2023-01-24T22:03:19.615Z,71.28
2023-01-24T22:05:52.127Z,71.56
2023-01-24T22:08:23.328Z,71.20
2023-01-24T22:11:00.275Z,71.46
2023-01-24T22:13:31.485Z,71.61
2023-01-24T22:16:03.563Z,71.49
2023-01-24T22:18:35.586Z,71.36
2023-01-24T22:21:18.003Z,71.78
2023-01-24T22:23:57.474Z,71.52
2023-01-24T22:26:34.224Z,71.32
2023-01-24T22:29:05.958Z,71.36
2023-01-24T22:31:38.467Z,71.57
2023-01-24T22:34:13.052Z,71.47
2023-01-24T22:36:45.828Z,71.35
2023-01-24T22:39:16.911Z,71.46
2023-01-24T22:41:47.815Z,71.58
2023-01-24T22:44:18.732Z,71.49
2023-01-24T22:46:49.940Z,71.49
2023-01-24T22:49:20.873Z,71.72
2023-01-24T22:51:51.920Z,71.63
2023-01-24T22:54:22.959Z,71.63
2023-01-24T22:56:54.010Z,71.77
2023-01-24T22:59:24.924Z,71.73
2023-01-24T23:01:56.016Z,71.38
2023-01-24T23:04:27.146Z,71.23
2023-01-24T23:06:58.158Z,71.45
2023-01-24T23:09:29.271Z,71.29
2023-01-24T23:12:00.401Z,71.19
2023-01-24T23:14:49.129Z,71.02
2023-01-24T23:17:20.298Z,70.98
2023-01-24T23:20:08.865Z,71.39
2023-01-24T23:22:39.882Z,70.87
2023-01-24T23:25:11.430Z,71.41
2023-01-24T23:27:42.765Z,71.18
2023-01-24T23:30:33.878Z,71.09
2023-01-24T23:33:24.108Z,71.04
2023-01-24T23:35:55.231Z,71.11
2023-01-24T23:38:26.274Z,70.91
2023-01-24T23:40:57.311Z,70.84
2023-01-24T23:43:28.386Z,70.88
2023-01-24T23:45:59.465Z,70.60
2023-01-24T23:48:30.645Z,70.43
2023-01-24T23:51:02.626Z,70.58
2023-01-24T23:53:33.848Z,70.55
2023-01-24T23:56:05.523Z,70.33
2023-01-24T23:58:36.501Z,70.26
